Hotevilla, Arizona
Current Conditions -  °F | °C
As of 10:56 AM on Thursday 18 Dec 2014 (Local Time) from KINW Reporting Station
Overcast Overcast  
Wind Chill: 34°   Ceiling: 10000
Heat Index: 38°   Visibility: 10mi
Dew Point: 33°   Wind: 5mph
Humidity: 83%   Direction: 100°E
Pressure: 30.17"   Gusts: NA
Location:  35.93°N, 110.67°W
Report Text: KINW 181756Z AUTO 10004KT 10SM OVC100 03/01 A3017 RMK AO2 SLP218 T00330006 10033 21011 53009
Loading
Personal Weather Stations






























Interactive Weather Map New forecast layout! Learn more

10-Day Weather Forecast

Advertisements
Track Severe Weather on mobile